Time;durP1;ratioP1;P1;durP2;ratioP2;P2;SDS_P1;SDS_P2;PMS_P1;PMS_P2;Temp;Humidity;BMP_temperature;BMP_pressure;BME280_temperature;BME280_humidity;BME280_pressure;Samples;Min_cycle;Max_cycle;Signal;HPM_P1;HPM_P2
2021/10/26 00:00:14;;;;;;;;;;;;;;;7.81;47.02;98745.58;1680732;84;22180;-85
2021/10/26 00:02:44;;;;;;;;;;;;;;;7.81;47.10;98742.13;1682016;84;21094;-85
2021/10/26 00:05:10;;;;;;;;;;;;;;;7.77;47.17;98734.95;1677076;84;24519;-85
2021/10/26 00:07:36;;;;;;;;;;;;;;;7.75;47.27;98731.58;1678338;84;20270;-83
2021/10/26 00:10:12;;;;;;;;;;;;;;;7.72;47.35;98731.75;1679872;84;24589;-85
2021/10/26 00:12:38;;;;;;;;;;;;;;;7.69;47.45;98732.39;1620198;87;22255;-82
2021/10/26 00:15:07;;;;;;;;;;;;;;;7.66;47.53;98735.14;1629567;87;26005;-84
2021/10/26 00:17:35;;;;;;;;;;;;;;;7.68;47.60;98733.31;1651994;85;24513;-85
2021/10/26 00:20:02;;;;;;;;;;;;;;;7.69;47.68;98726.69;1630930;87;20320;-83
2021/10/26 00:22:29;;;;;;;;;;;;;;;7.72;47.76;98730.45;1629013;87;24507;-83
2021/10/26 00:24:55;;;;;;;;;;;;;;;7.73;47.82;98729.99;1631402;87;21953;-83
2021/10/26 00:27:21;;;;;;;;;;;;;;;7.78;47.92;98730.13;1619977;88;21032;-86
2021/10/26 00:29:48;;;;;;;;;;;;;;;7.85;47.98;98723.67;1630551;87;24700;-84
2021/10/26 00:32:15;;;;;;;;;;;;;;;7.89;48.04;98719.97;1652369;85;20567;-83
2021/10/26 00:34:41;;;;;;;;;;;;;;;7.94;48.09;98727.53;1632002;87;24527;-82
2021/10/26 00:37:08;;;;;;;;;;;;;;;7.95;48.14;98720.94;1631974;87;22173;-82
2021/10/26 00:39:35;;;;;;;;;;;;;;;7.97;48.18;98715.62;1635906;87;26686;-82
2021/10/26 00:42:02;;;;;;;;;;;;;;;8.01;48.24;98721.52;1628807;87;24528;-82
2021/10/26 00:44:29;;;;;;;;;;;;;;;8.04;48.30;98718.28;1651532;85;20502;-82
2021/10/26 00:46:55;;;;;;;;;;;;;;;8.06;48.35;98716.90;1628395;87;24601;-82
2021/10/26 00:49:21;;;;;;;;;;;;;;;8.09;48.40;98718.02;1652273;86;22157;-82
2021/10/26 00:51:55;;;;;;;;;;;;;;;8.09;48.44;98711.50;1648553;86;26074;-83
2021/10/26 00:54:23;;;;;;;;;;;;;;;8.11;48.51;98713.11;1647919;85;24652;-85
2021/10/26 00:56:49;;;;;;;;;;;;;;;8.14;48.55;98713.39;1633751;87;20470;-85
2021/10/26 00:59:15;;;;;;;;;;;;;;;8.12;48.58;98707.44;1631816;87;20265;-85
2021/10/26 01:01:41;;;;;;;;;;;;;;;8.12;48.63;98706.14;1623506;86;21983;-82
2021/10/26 01:04:08;;;;;;;;;;;;;;;8.15;48.67;98705.49;1649477;85;26299;-82
2021/10/26 01:06:35;;;;;;;;;;;;;;;8.21;48.71;98708.22;1652228;85;24513;-84
2021/10/26 01:09:02;;;;;;;;;;;;;;;8.23;48.72;98707.69;1649850;85;20348;-84
2021/10/26 01:11:29;;;;;;;;;;;;;;;8.25;48.76;98710.56;1648910;85;25319;-84
2021/10/26 01:13:55;;;;;;;;;;;;;;;8.24;48.81;98709.34;1648961;86;22052;-83
2021/10/26 01:16:21;;;;;;;;;;;;;;;8.25;48.86;98706.66;1648999;86;26062;-82
2021/10/26 01:18:47;;;;;;;;;;;;;;;8.26;48.87;98704.43;1648626;86;24590;-82
2021/10/26 01:21:14;;;;;;;;;;;;;;;8.32;48.94;98701.97;1649863;85;20478;-82
2021/10/26 01:23:40;;;;;;;;;;;;;;;8.30;48.94;98715.55;1647473;86;24610;-85
2021/10/26 01:26:06;;;;;;;;;;;;;;;8.28;48.95;98707.80;1650644;85;20270;-83
2021/10/26 01:28:32;;;;;;;;;;;;;;;8.26;48.97;98712.25;1647938;85;26150;-84
2021/10/26 01:30:58;;;;;;;;;;;;;;;8.17;48.99;98712.77;1650000;85;20450;-84
2021/10/26 01:33:25;;;;;;;;;;;;;;;8.11;49.00;98710.97;1648289;86;20281;-85
2021/10/26 01:35:51;;;;;;;;;;;;;;;8.03;49.03;98710.53;1650890;86;24573;-83
2021/10/26 01:38:17;;;;;;;;;;;;;;;7.94;49.06;98711.43;1651987;85;22220;-83
2021/10/26 01:40:43;;;;;;;;;;;;;;;7.91;49.13;98717.25;1651638;85;21053;-84
2021/10/26 01:43:09;;;;;;;;;;;;;;;7.96;49.20;98716.56;1653501;85;20238;-83
2021/10/26 01:45:35;;;;;;;;;;;;;;;7.99;49.24;98723.75;1653521;85;20250;-83
2021/10/26 01:48:01;;;;;;;;;;;;;;;8.01;49.30;98718.92;1653781;85;24861;-82
2021/10/26 01:50:28;;;;;;;;;;;;;;;8.02;49.36;98717.51;1655160;85;21992;-82
2021/10/26 01:52:54;;;;;;;;;;;;;;;8.06;49.39;98719.05;1657861;85;26248;-84
2021/10/26 01:55:20;;;;;;;;;;;;;;;8.09;49.46;98728.45;1657099;85;24494;-83
2021/10/26 01:57:46;;;;;;;;;;;;;;;8.04;49.48;98723.48;1625083;86;21021;-83
2021/10/26 02:00:17;;;;;;;;;;;;;;;7.99;49.51;98724.20;1635533;87;24680;-83
2021/10/26 02:02:47;;;;;;;;;;;;;;;8.01;49.54;98723.67;1654898;85;22120;-83
2021/10/26 02:05:11;;;;;;;;;;;;;;;8.02;49.59;98719.30;1655310;85;25780;-83
2021/10/26 02:07:37;;;;;;;;;;;;;;;7.95;49.61;98726.16;1649133;85;20328;-83
2021/10/26 02:10:03;;;;;;;;;;;;;;;7.78;49.65;98726.22;1639716;87;20458;-85
2021/10/26 02:12:32;;;;;;;;;;;;;;;7.65;49.67;98725.64;1625904;86;24577;-82
2021/10/26 02:14:58;;;;;;;;;;;;;;;7.50;49.78;98728.15;1654604;85;21952;-83
2021/10/26 02:17:24;;;;;;;;;;;;;;;7.36;49.85;98730.64;1625011;86;26095;-83
2021/10/26 02:19:50;;;;;;;;;;;;;;;7.15;49.94;98735.17;1655828;85;20745;-82
2021/10/26 02:22:17;;;;;;;;;;;;;;;6.89;50.00;98733.51;1657157;85;20256;-82
2021/10/26 02:24:44;;;;;;;;;;;;;;;6.63;50.05;98739.55;1679988;84;24757;-83
2021/10/26 02:27:10;;;;;;;;;;;;;;;6.44;50.10;98741.34;1679377;84;22068;-82
2021/10/26 02:29:36;;;;;;;;;;;;;;;6.27;50.18;98746.05;1680503;84;20883;-83
2021/10/26 02:32:04;;;;;;;;;;;;;;;6.14;50.28;98754.06;1680170;84;20846;-82
2021/10/26 02:34:30;;;;;;;;;;;;;;;6.02;50.37;98759.82;1678232;84;20545;-84
2021/10/26 02:36:57;;;;;;;;;;;;;;;5.87;50.49;98756.19;1676893;84;24900;-82
2021/10/26 02:39:23;;;;;;;;;;;;;;;5.74;50.59;98762.80;1680564;84;22079;-83
2021/10/26 02:41:49;;;;;;;;;;;;;;;5.66;50.72;98764.06;1677932;84;25995;-85
2021/10/26 02:44:16;;;;;;;;;;;;;;;5.62;50.88;98767.72;1680204;84;24455;-85
2021/10/26 02:46:42;;;;;;;;;;;;;;;5.56;51.01;98765.39;1678430;84;20621;-85
2021/10/26 02:49:09;;;;;;;;;;;;;;;5.59;51.19;98765.24;1678349;84;24545;-84
2021/10/26 02:51:35;;;;;;;;;;;;;;;5.63;51.36;98765.48;1684748;84;22670;-86
2021/10/26 02:54:02;;;;;;;;;;;;;;;5.68;51.51;98766.13;1682865;84;26014;-85
2021/10/26 02:56:28;;;;;;;;;;;;;;;5.62;51.65;98761.23;1683183;85;24539;-84
2021/10/26 02:58:55;;;;;;;;;;;;;;;5.65;51.83;98758.03;1676967;84;20192;-85
2021/10/26 03:01:21;;;;;;;;;;;;;;;5.84;52.00;98756.72;1678076;84;24684;-85
2021/10/26 03:03:47;;;;;;;;;;;;;;;5.97;52.16;98755.75;1684860;84;22056;-83
2021/10/26 03:06:13;;;;;;;;;;;;;;;5.91;52.29;98754.73;1678445;84;21181;-83
2021/10/26 03:08:39;;;;;;;;;;;;;;;5.92;52.41;98753.37;1683851;84;24439;-84
2021/10/26 03:11:05;;;;;;;;;;;;;;;6.06;52.56;98757.45;1683991;83;20245;-84
2021/10/26 03:13:31;;;;;;;;;;;;;;;6.15;52.65;98756.20;1685423;84;24504;-83
2021/10/26 03:15:58;;;;;;;;;;;;;;;6.17;52.78;98763.00;1685092;84;22052;-84
2021/10/26 03:18:25;;;;;;;;;;;;;;;6.14;52.84;98763.61;1678740;84;26129;-83
2021/10/26 03:20:51;;;;;;;;;;;;;;;6.09;52.91;98762.53;1683469;83;24411;-83
2021/10/26 03:23:18;;;;;;;;;;;;;;;6.00;52.98;98762.12;1685151;85;20637;-83
2021/10/26 03:25:44;;;;;;;;;;;;;;;5.91;53.04;98759.92;1684905;83;24783;-84
2021/10/26 03:28:10;;;;;;;;;;;;;;;5.83;53.10;98761.11;1685186;84;21972;-85
2021/10/26 03:30:37;;;;;;;;;;;;;;;5.80;53.20;98759.92;1685441;83;25973;-85
2021/10/26 03:33:04;;;;;;;;;;;;;;;5.69;53.25;98758.72;1685114;83;24476;-85
2021/10/26 03:35:30;;;;;;;;;;;;;;;5.60;53.34;98760.45;1688975;84;20227;-84
2021/10/26 03:37:56;;;;;;;;;;;;;;;5.42;53.41;98761.64;1682369;84;24668;-85
2021/10/26 03:40:22;;;;;;;;;;;;;;;5.33;53.53;98759.45;1680377;84;20240;-82
2021/10/26 03:42:48;;;;;;;;;;;;;;;5.37;53.66;98759.70;1682967;85;21146;-82
2021/10/26 03:45:14;;;;;;;;;;;;;;;5.45;53.79;98758.89;1684132;84;20274;-82
2021/10/26 03:47:41;;;;;;;;;;;;;;;5.40;53.91;98760.85;1694380;84;20314;-82
2021/10/26 03:50:08;;;;;;;;;;;;;;;5.28;54.00;98767.05;1691473;84;24532;-83
2021/10/26 03:52:34;;;;;;;;;;;;;;;5.20;54.15;98767.37;1688920;84;22051;-83
2021/10/26 03:55:00;;;;;;;;;;;;;;;5.15;54.27;98765.42;1695899;84;25605;-85
2021/10/26 03:57:27;;;;;;;;;;;;;;;5.17;54.40;98758.44;1633910;87;24430;-82
2021/10/26 03:59:53;;;;;;;;;;;;;;;5.33;54.56;98756.86;1684380;85;20201;-84
2021/10/26 04:02:28;;;;;;;;;;;;;;;5.40;54.70;98761.34;1679773;84;24589;-82
2021/10/26 04:04:47;;;;;;;;;;;;;;;5.47;54.81;98759.69;1681257;83;22736;-85
2021/10/26 04:07:13;;;;;;;;;;;;;;;5.55;54.93;98757.21;1681462;85;26059;-82
2021/10/26 04:12:26;;;;;;;;;;;;;;;5.47;55.08;98738.07;1682381;84;20160;-82
2021/10/26 04:14:56;;;;;;;;;;;;;;;5.61;55.20;98757.78;1691404;84;25386;-82
2021/10/26 04:17:22;;;;;;;;;;;;;;;5.63;55.29;98752.05;1691205;84;22091;-83
2021/10/26 04:19:49;;;;;;;;;;;;;;;5.68;55.33;98746.19;1695188;84;26048;-81
2021/10/26 04:22:20;;;;;;;;;;;;;;;5.70;55.38;98752.17;1685356;85;24445;-85
2021/10/26 04:24:49;;;;;;;;;;;;;;;5.72;55.46;98749.52;1661156;85;20149;-84
2021/10/26 04:27:16;;;;;;;;;;;;;;;5.71;55.52;98751.27;1627247;87;24611;-81
2021/10/26 04:29:42;;;;;;;;;;;;;;;5.70;55.59;98745.68;1628792;86;21961;-82
2021/10/26 04:32:09;;;;;;;;;;;;;;;5.79;55.66;98743.11;1681574;84;26077;-86
2021/10/26 04:34:38;;;;;;;;;;;;;;;5.81;55.72;98744.73;1683876;85;25218;-85
2021/10/26 04:37:06;;;;;;;;;;;;;;;5.82;55.79;98741.23;1679836;84;20253;-84
2021/10/26 04:39:33;;;;;;;;;;;;;;;5.73;55.84;98748.58;1678297;84;24568;-82
2021/10/26 04:42:01;;;;;;;;;;;;;;;5.73;55.91;98753.31;1680289;84;21997;-82
2021/10/26 04:44:27;;;;;;;;;;;;;;;5.66;55.94;98744.59;1678356;84;26762;-84
2021/10/26 04:46:53;;;;;;;;;;;;;;;5.59;56.01;98738.83;1677519;83;20275;-84
2021/10/26 04:49:19;;;;;;;;;;;;;;;5.56;56.06;98748.06;1679151;85;20253;-84
2021/10/26 04:51:45;;;;;;;;;;;;;;;5.60;56.12;98748.77;1679165;84;24807;-84
2021/10/26 04:54:11;;;;;;;;;;;;;;;5.58;56.20;98744.92;1677264;84;20829;-84
2021/10/26 04:56:37;;;;;;;;;;;;;;;5.55;56.29;98745.08;1675609;84;20894;-84
2021/10/26 04:59:03;;;;;;;;;;;;;;;5.50;56.35;98744.89;1646484;85;25172;-82
2021/10/26 05:01:29;;;;;;;;;;;;;;;5.45;56.43;98750.30;1681408;85;20238;-82
2021/10/26 05:03:55;;;;;;;;;;;;;;;5.40;56.46;98749.17;1685439;84;20378;-82
2021/10/26 05:06:21;;;;;;;;;;;;;;;5.39;56.55;98746.67;1685834;85;21921;-82
2021/10/26 05:08:52;;;;;;;;;;;;;;;5.35;56.61;98752.88;1684262;83;20975;-82
2021/10/26 05:11:16;;;;;;;;;;;;;;;5.30;56.68;98751.78;1681170;83;24452;-82
2021/10/26 05:13:42;;;;;;;;;;;;;;;5.32;56.77;98755.17;1684014;84;20854;-85
2021/10/26 05:16:09;;;;;;;;;;;;;;;5.34;56.85;98752.06;1685353;83;24542;-85
2021/10/26 05:18:38;;;;;;;;;;;;;;;5.38;56.94;98756.66;1683205;83;21961;-83
2021/10/26 05:21:05;;;;;;;;;;;;;;;5.43;57.02;98758.59;1679401;83;26016;-83
2021/10/26 05:23:31;;;;;;;;;;;;;;;5.46;57.09;98757.14;1684551;83;25359;-83
2021/10/26 05:25:57;;;;;;;;;;;;;;;5.43;57.16;98755.55;1682609;83;20481;-83
2021/10/26 05:28:23;;;;;;;;;;;;;;;5.38;57.23;98754.91;1684937;84;20707;-85
2021/10/26 05:30:49;;;;;;;;;;;;;;;5.36;57.31;98763.20;1685855;84;22022;-84
2021/10/26 05:33:15;;;;;;;;;;;;;;;5.27;57.35;98767.50;1682237;84;21021;-83
2021/10/26 05:35:41;;;;;;;;;;;;;;;5.11;57.38;98764.33;1687709;83;24505;-82
2021/10/26 05:38:07;;;;;;;;;;;;;;;4.94;57.38;98765.04;1688079;83;20298;-82
2021/10/26 05:40:33;;;;;;;;;;;;;;;4.91;57.45;98762.59;1689763;83;24601;-81
2021/10/26 05:43:01;;;;;;;;;;;;;;;4.77;57.50;98768.78;1694366;83;22040;-84
2021/10/26 05:45:28;;;;;;;;;;;;;;;4.73;57.56;98773.70;1687226;83;26573;-85
2021/10/26 05:47:54;;;;;;;;;;;;;;;4.63;57.64;98779.27;1687632;84;24510;-81
2021/10/26 05:50:20;;;;;;;;;;;;;;;4.58;57.73;98786.36;1686937;84;20266;-85
2021/10/26 05:52:46;;;;;;;;;;;;;;;4.55;57.83;98789.54;1685745;84;25279;-85
2021/10/26 05:55:14;;;;;;;;;;;;;;;4.51;57.93;98787.53;1666357;85;20177;-83
2021/10/26 05:57:40;;;;;;;;;;;;;;;4.52;58.06;98790.52;1669068;85;21137;-84
2021/10/26 06:00:07;;;;;;;;;;;;;;;4.70;58.21;98790.66;1662918;85;24522;-84
2021/10/26 06:02:33;;;;;;;;;;;;;;;4.94;58.35;98793.56;1660972;85;20164;-84
2021/10/26 06:05:00;;;;;;;;;;;;;;;5.15;58.49;98791.81;1632576;86;24543;-84
2021/10/26 06:07:26;;;;;;;;;;;;;;;5.36;58.63;98800.83;1664471;85;20926;-84
2021/10/26 06:09:52;;;;;;;;;;;;;;;5.38;58.71;98799.02;1636219;86;26082;-86
2021/10/26 06:12:24;;;;;;;;;;;;;;;5.32;58.78;98803.63;1687436;83;24481;-83
2021/10/26 06:14:46;;;;;;;;;;;;;;;5.27;58.86;98796.05;1686915;83;20367;-84
2021/10/26 06:17:12;;;;;;;;;;;;;;;5.24;58.94;98801.34;1688913;83;25383;-84
2021/10/26 06:19:38;;;;;;;;;;;;;;;5.24;59.03;98800.05;1691644;84;22741;-84
2021/10/26 06:22:04;;;;;;;;;;;;;;;5.29;59.14;98810.26;1687266;85;20930;-83
2021/10/26 06:24:30;;;;;;;;;;;;;;;5.28;59.23;98813.75;1689455;83;24483;-84
2021/10/26 06:26:56;;;;;;;;;;;;;;;5.30;59.32;98809.33;1692581;83;20276;-84
2021/10/26 06:29:23;;;;;;;;;;;;;;;5.44;59.44;98809.59;1686603;83;24597;-84
2021/10/26 06:31:49;;;;;;;;;;;;;;;5.59;59.58;98816.70;1685957;84;20318;-85
2021/10/26 06:34:15;;;;;;;;;;;;;;;5.70;59.68;98822.28;1688498;84;25995;-84
2021/10/26 06:36:42;;;;;;;;;;;;;;;5.77;59.78;98821.56;1690402;83;24410;-85
2021/10/26 06:39:08;;;;;;;;;;;;;;;5.85;59.84;98822.89;1668863;84;20579;-84
2021/10/26 06:41:34;;;;;;;;;;;;;;;5.95;59.91;98825.09;1668228;85;24765;-83
2021/10/26 06:44:00;;;;;;;;;;;;;;;5.98;59.98;98828.42;1653442;85;20233;-85
2021/10/26 06:46:26;;;;;;;;;;;;;;;6.06;60.06;98834.09;1666055;84;25845;-85
2021/10/26 06:48:52;;;;;;;;;;;;;;;6.02;60.11;98835.16;1674743;84;20941;-83
2021/10/26 06:51:18;;;;;;;;;;;;;;;6.00;60.15;98833.55;1668771;85;20282;-84
2021/10/26 06:53:45;;;;;;;;;;;;;;;6.13;60.26;98826.87;1675030;84;24590;-83
2021/10/26 06:56:14;;;;;;;;;;;;;;;6.28;60.34;98825.71;1676648;85;22036;-83
2021/10/26 06:58:38;;;;;;;;;;;;;;;6.45;60.44;98826.69;1676595;83;26743;-83
2021/10/26 07:01:07;;;;;;;;;;;;;;;6.48;60.51;98830.45;1674880;84;20283;-83
2021/10/26 07:03:32;;;;;;;;;;;;;;;6.43;60.55;98835.87;1675714;84;20497;-83
2021/10/26 07:05:58;;;;;;;;;;;;;;;6.35;60.60;98837.97;1675964;84;24570;-83
2021/10/26 07:08:24;;;;;;;;;;;;;;;6.29;60.65;98836.50;1673275;85;21996;-83
2021/10/26 07:10:51;;;;;;;;;;;;;;;6.27;60.71;98838.31;1659544;85;26058;-84
2021/10/26 07:13:17;;;;;;;;;;;;;;;6.24;60.77;98838.47;1656439;85;24535;-83
2021/10/26 07:15:45;;;;;;;;;;;;;;;6.26;60.84;98839.25;1676494;84;20273;-83
2021/10/26 07:18:11;;;;;;;;;;;;;;;6.31;60.94;98842.94;1673644;85;25474;-83
2021/10/26 07:20:37;;;;;;;;;;;;;;;6.32;61.01;98840.73;1672489;84;22129;-83
2021/10/26 07:23:03;;;;;;;;;;;;;;;6.33;61.07;98841.58;1673232;84;26022;-83
2021/10/26 07:25:29;;;;;;;;;;;;;;;6.35;61.11;98844.92;1652812;85;24627;-83
2021/10/26 07:27:58;;;;;;;;;;;;;;;6.40;61.18;98845.55;1673594;84;20260;-83
2021/10/26 07:30:28;;;;;;;;;;;;;;;6.43;61.23;98846.73;1666879;85;24772;-83
2021/10/26 07:32:55;;;;;;;;;;;;;;;6.47;61.32;98845.66;1670493;84;21964;-83
2021/10/26 07:35:22;;;;;;;;;;;;;;;6.52;61.41;98839.79;1670672;84;26570;-84
2021/10/26 07:37:48;;;;;;;;;;;;;;;6.58;61.51;98840.35;1683415;83;24636;-84
2021/10/26 07:40:15;;;;;;;;;;;;;;;6.66;61.63;98841.27;1687937;84;20216;-85
2021/10/26 07:42:42;;;;;;;;;;;;;;;6.82;61.77;98834.41;1685933;83;24592;-83
2021/10/26 07:45:09;;;;;;;;;;;;;;;6.86;61.84;98837.28;1687007;83;22235;-83
2021/10/26 07:47:36;;;;;;;;;;;;;;;6.82;61.87;98840.11;1684936;83;25980;-83
2021/10/26 07:50:03;;;;;;;;;;;;;;;6.91;61.90;98834.45;1687414;83;24483;-83
2021/10/26 07:52:29;;;;;;;;;;;;;;;6.87;61.91;98837.66;1685659;83;20283;-83
2021/10/26 07:54:55;;;;;;;;;;;;;;;7.01;61.96;98835.22;1687567;83;24562;-83
2021/10/26 07:57:23;;;;;;;;;;;;;;;7.10;62.04;98834.76;1710133;82;22466;-82
2021/10/26 07:59:50;;;;;;;;;;;;;;;7.28;62.13;98823.90;1657003;85;25722;-82
2021/10/26 08:02:17;;;;;;;;;;;;;;;7.36;62.17;98832.64;1680146;84;24625;-82
2021/10/26 08:04:45;;;;;;;;;;;;;;;7.49;62.22;98837.59;1680286;84;20292;-82
2021/10/26 08:07:12;;;;;;;;;;;;;;;7.58;62.25;98839.74;1680582;84;24559;-82
2021/10/26 08:09:38;;;;;;;;;;;;;;;7.68;62.24;98838.80;1702294;83;22012;-82
2021/10/26 08:12:05;;;;;;;;;;;;;;;7.69;62.21;98834.79;1683432;84;25953;-82
2021/10/26 08:14:31;;;;;;;;;;;;;;;7.69;62.14;98836.59;1684390;85;24451;-82
2021/10/26 08:16:57;;;;;;;;;;;;;;;7.81;62.15;98830.71;1678667;84;20267;-82
2021/10/26 08:19:23;;;;;;;;;;;;;;;7.85;62.13;98830.50;1680106;84;25219;-82
2021/10/26 08:21:50;;;;;;;;;;;;;;;7.96;62.16;98833.35;1685434;84;20378;-86
2021/10/26 08:24:18;;;;;;;;;;;;;;;8.14;62.21;98830.23;1683233;83;26148;-85
2021/10/26 08:26:46;;;;;;;;;;;;;;;8.28;62.27;98831.66;1683814;83;24498;-85
2021/10/26 08:36:59;;;;;;;;;;;;;;;8.93;62.44;98823.27;1640819;85;26627;-87
2021/10/26 08:39:25;;;;;;;;;;;;;;;9.03;62.42;98824.42;1645291;86;24648;-84
2021/10/26 08:41:53;;;;;;;;;;;;;;;9.15;62.43;98822.88;1613514;87;20482;-84
2021/10/26 08:44:19;;;;;;;;;;;;;;;9.26;62.40;98823.56;1679513;84;25278;-84
2021/10/26 08:46:45;;;;;;;;;;;;;;;9.27;62.29;98831.77;1677635;84;20852;-85
2021/10/26 08:49:13;;;;;;;;;;;;;;;9.27;62.19;98826.55;1677337;84;26125;-84
2021/10/26 08:51:44;;;;;;;;;;;;;;;9.34;62.12;98823.94;1680310;84;25532;-85
2021/10/26 08:54:11;;;;;;;;;;;;;;;9.37;62.07;98823.31;1676707;84;20195;-84
2021/10/26 08:56:37;;;;;;;;;;;;;;;9.41;62.01;98820.89;1679891;84;24569;-84
2021/10/26 08:59:04;;;;;;;;;;;;;;;9.48;61.98;98820.06;1678590;84;22727;-84
2021/10/26 09:01:31;;;;;;;;;;;;;;;9.58;61.98;98829.88;1678049;84;26070;-84
2021/10/26 09:04:07;;;;;;;;;;;;;;;9.71;61.93;98825.23;1679038;84;24674;-84
2021/10/26 09:06:36;;;;;;;;;;;;;;;9.80;61.88;98832.05;1680395;84;20239;-85
2021/10/26 09:09:03;;;;;;;;;;;;;;;9.92;61.83;98832.62;1666795;83;24616;-85
2021/10/26 09:11:43;;;;;;;;;;;;;;;10.00;61.76;98821.67;1681493;83;21968;-85
2021/10/26 09:16:43;;;;;;;;;;;;;;;10.03;61.49;98825.42;1662956;85;25303;-84
2021/10/26 09:19:14;;;;;;;;;;;;;;;10.02;61.34;98825.89;1632113;86;20226;-84
2021/10/26 09:21:41;;;;;;;;;;;;;;;10.05;61.18;98828.77;1658183;85;24548;-84
2021/10/26 09:24:09;;;;;;;;;;;;;;;10.11;61.05;98830.16;1633190;86;22034;-84
2021/10/26 09:26:46;;;;;;;;;;;;;;;10.17;60.97;98828.05;1643115;86;26002;-84
2021/10/26 09:29:12;;;;;;;;;;;;;;;10.26;60.91;98830.55;1678273;84;24071;-84
2021/10/26 09:31:40;;;;;;;;;;;;;;;10.29;60.78;98819.45;1680063;84;20503;-82
2021/10/26 09:34:07;;;;;;;;;;;;;;;10.33;60.66;98826.16;1675905;84;24583;-82
2021/10/26 09:36:35;;;;;;;;;;;;;;;10.30;60.49;98822.91;1706414;82;21995;-82
2021/10/26 09:39:06;;;;;;;;;;;;;;;10.31;60.33;98820.67;1683730;83;27077;-82
2021/10/26 09:41:33;;;;;;;;;;;;;;;10.33;60.18;98826.63;1684167;83;24535;-82
2021/10/26 09:44:16;;;;;;;;;;;;;;;10.36;60.00;98825.98;1683413;84;20503;-82
2021/10/26 09:46:43;;;;;;;;;;;;;;;10.45;59.93;98824.09;1688163;83;25360;-82
2021/10/26 09:49:25;;;;;;;;;;;;;;;10.53;59.86;98817.05;1677901;83;21970;-82
2021/10/26 09:51:53;;;;;;;;;;;;;;;10.63;59.79;98815.55;1686752;83;26754;-81
2021/10/26 09:54:19;;;;;;;;;;;;;;;10.68;59.68;98812.63;1685658;83;24687;-81
2021/10/26 09:57:01;;;;;;;;;;;;;;;10.71;59.58;98817.66;1678936;84;20232;-81
2021/10/26 09:59:28;;;;;;;;;;;;;;;10.77;59.51;98812.03;1675950;84;25369;-82
2021/10/26 10:01:54;;;;;;;;;;;;;;;10.84;59.47;98812.02;1678103;84;22003;-83
2021/10/26 10:04:25;;;;;;;;;;;;;;;10.89;59.45;98806.00;1677658;85;26012;-85
2021/10/26 10:06:51;;;;;;;;;;;;;;;10.92;59.38;98808.41;1679231;84;24465;-84
2021/10/26 10:09:21;;;;;;;;;;;;;;;11.01;59.34;98807.83;1688835;83;20339;-84
2021/10/26 10:12:06;;;;;;;;;;;;;;;11.12;59.32;98801.41;1685505;84;24363;-85
2021/10/26 10:14:33;;;;;;;;;;;;;;;11.18;59.31;98799.67;1685079;84;22003;-85
2021/10/26 10:17:02;;;;;;;;;;;;;;;11.26;59.28;98785.61;1685155;84;26126;-82
2021/10/26 10:19:28;;;;;;;;;;;;;;;11.31;59.26;98783.52;1683645;83;25281;-81
2021/10/26 10:21:55;;;;;;;;;;;;;;;11.38;59.22;98785.25;1685101;84;20172;-82
2021/10/26 10:24:21;;;;;;;;;;;;;;;11.45;59.21;98781.28;1685569;84;24603;-81
2021/10/26 10:26:52;;;;;;;;;;;;;;;11.55;59.20;98780.19;1684362;84;22229;-82
2021/10/26 10:29:23;;;;;;;;;;;;;;;11.63;59.15;98772.15;1685222;84;26059;-86
2021/10/26 10:31:50;;;;;;;;;;;;;;;11.70;59.10;98768.17;1685773;83;23986;-86
2021/10/26 10:34:20;;;;;;;;;;;;;;;11.74;59.00;98759.64;1680161;84;20468;-85
2021/10/26 10:36:47;;;;;;;;;;;;;;;11.80;58.92;98771.02;1705594;83;24578;-84
2021/10/26 10:39:13;;;;;;;;;;;;;;;11.84;58.87;98763.30;1691926;84;21527;-84
2021/10/26 10:41:41;;;;;;;;;;;;;;;11.85;58.81;98764.14;1693283;84;25979;-84
2021/10/26 10:44:21;;;;;;;;;;;;;;;11.82;58.67;98762.59;1681810;85;24272;-84
2021/10/26 10:46:51;;;;;;;;;;;;;;;11.78;58.57;98758.98;1661142;85;20256;-84
2021/10/26 10:49:27;;;;;;;;;;;;;;;11.74;58.44;98756.55;1685128;84;24449;-82
2021/10/26 10:51:54;;;;;;;;;;;;;;;11.73;58.35;98757.95;1681255;84;22945;-82
2021/10/26 10:54:30;;;;;;;;;;;;;;;11.72;58.27;98754.49;1679634;85;26676;-82
2021/10/26 10:57:16;;;;;;;;;;;;;;;11.67;58.16;98755.75;1654921;84;24516;-82
2021/10/26 10:59:47;;;;;;;;;;;;;;;11.59;58.01;98758.05;1661053;86;20178;-82
2021/10/26 11:02:20;;;;;;;;;;;;;;;11.60;57.96;98746.16;1687141;83;24761;-84
2021/10/26 11:04:47;;;;;;;;;;;;;;;11.69;57.93;98750.75;1702309;83;22693;-83
2021/10/26 11:07:13;;;;;;;;;;;;;;;11.76;57.87;98749.05;1686182;84;26679;-84
2021/10/26 11:09:42;;;;;;;;;;;;;;;11.77;57.79;98749.42;1685747;84;24416;-84
2021/10/26 11:12:25;;;;;;;;;;;;;;;11.83;57.74;98741.14;1682792;84;20301;-84
2021/10/26 11:14:56;;;;;;;;;;;;;;;11.87;57.64;98735.56;1683678;84;24993;-84
2021/10/26 11:17:38;;;;;;;;;;;;;;;11.95;57.55;98733.69;1683199;84;22077;-84
2021/10/26 11:20:08;;;;;;;;;;;;;;;12.06;57.54;98737.23;1687226;84;26000;-83
2021/10/26 11:22:54;;;;;;;;;;;;;;;12.21;57.50;98733.17;1684068;84;25265;-83
2021/10/26 11:25:22;;;;;;;;;;;;;;;12.33;57.48;98728.36;1685259;84;20458;-84
2021/10/26 11:27:48;;;;;;;;;;;;;;;12.46;57.40;98723.41;1687318;84;24756;-84
2021/10/26 11:30:31;;;;;;;;;;;;;;;12.59;57.41;98725.98;1685298;84;21956;-84
2021/10/26 11:33:11;;;;;;;;;;;;;;;12.66;57.33;98728.50;1691779;84;26727;-84
2021/10/26 11:35:42;;;;;;;;;;;;;;;12.74;57.23;98722.70;1690745;84;24497;-87
2021/10/26 11:38:11;;;;;;;;;;;;;;;12.84;57.11;98720.59;1686484;83;20520;-87
2021/10/26 11:40:40;;;;;;;;;;;;;;;12.94;57.06;98717.62;1684297;83;25561;-87
2021/10/26 11:43:07;;;;;;;;;;;;;;;13.06;56.95;98715.03;1684312;83;23161;-87
2021/10/26 11:45:33;;;;;;;;;;;;;;;13.14;56.88;98713.55;1683446;84;26020;-87
2021/10/26 11:47:59;;;;;;;;;;;;;;;13.25;56.81;98712.73;1684673;84;20331;-87
2021/10/26 11:50:26;;;;;;;;;;;;;;;13.38;56.78;98709.51;1672601;84;20495;-86
2021/10/26 11:52:52;;;;;;;;;;;;;;;13.50;56.70;98711.67;1685012;84;24990;-86
2021/10/26 11:55:28;;;;;;;;;;;;;;;13.55;56.56;98714.31;1709947;82;21943;-86
2021/10/26 11:57:54;;;;;;;;;;;;;;;13.57;56.42;98712.41;1690808;83;25905;-86
2021/10/26 12:00:20;;;;;;;;;;;;;;;13.60;56.27;98711.32;1684765;83;25226;-86
2021/10/26 12:02:46;;;;;;;;;;;;;;;13.56;56.06;98702.84;1686242;83;20223;-87
2021/10/26 12:05:20;;;;;;;;;;;;;;;13.55;55.92;98699.84;1683726;83;24825;-83
2021/10/26 12:07:53;;;;;;;;;;;;;;;13.57;55.79;98699.27;1685524;83;22217;-84
2021/10/26 12:10:21;;;;;;;;;;;;;;;13.55;55.59;98702.95;1683417;84;26059;-83
2021/10/26 12:12:46;;;;;;;;;;;;;;;13.52;55.47;98704.52;1686093;83;24604;-83
2021/10/26 12:15:13;;;;;;;;;;;;;;;13.49;55.34;98706.05;1683574;83;20221;-83
2021/10/26 12:17:40;;;;;;;;;;;;;;;13.45;55.24;98703.31;1683094;83;24732;-83
2021/10/26 12:20:20;;;;;;;;;;;;;;;13.38;55.11;98696.37;1682178;83;21745;-86
2021/10/26 12:22:57;;;;;;;;;;;;;;;13.35;54.96;98697.45;1685265;84;26055;-82
2021/10/26 12:25:27;;;;;;;;;;;;;;;13.34;54.86;98699.72;1683961;83;25166;-82
2021/10/26 12:27:58;;;;;;;;;;;;;;;13.29;54.78;98692.66;1678132;84;20743;-81
2021/10/26 12:30:25;;;;;;;;;;;;;;;13.28;54.68;98705.44;1676544;84;24933;-82
2021/10/26 12:32:56;;;;;;;;;;;;;;;13.25;54.57;98701.75;1682739;83;21951;-81
2021/10/26 12:35:22;;;;;;;;;;;;;;;13.24;54.53;98700.55;1680904;84;26003;-81
2021/10/26 12:37:50;;;;;;;;;;;;;;;13.21;54.45;98702.08;1683286;83;24516;-82
2021/10/26 12:40:19;;;;;;;;;;;;;;;13.19;54.39;98700.90;1679809;84;20642;-82
2021/10/26 12:42:46;;;;;;;;;;;;;;;13.17;54.32;98703.27;1685382;84;24938;-81
2021/10/26 12:45:14;;;;;;;;;;;;;;;13.15;54.25;98695.49;1652577;85;22074;-81
2021/10/26 12:47:57;;;;;;;;;;;;;;;13.16;54.23;98691.91;1679471;84;26016;-81
2021/10/26 12:50:25;;;;;;;;;;;;;;;13.16;54.20;98697.65;1679558;85;24521;-81
2021/10/26 12:53:11;;;;;;;;;;;;;;;13.14;54.17;98699.58;1707663;83;20471;-85
2021/10/26 12:55:38;;;;;;;;;;;;;;;13.14;54.13;98701.73;1679527;85;24991;-82
2021/10/26 12:58:04;;;;;;;;;;;;;;;13.15;54.11;98702.53;1678143;84;22001;-84
2021/10/26 13:00:30;;;;;;;;;;;;;;;13.15;54.09;98702.53;1680868;85;26083;-84
2021/10/26 13:03:09;;;;;;;;;;;;;;;13.12;54.05;98701.47;1693470;84;20245;-81
2021/10/26 13:05:37;;;;;;;;;;;;;;;13.12;54.05;98696.21;1690082;84;20363;-81
2021/10/26 13:08:03;;;;;;;;;;;;;;;13.15;54.06;98702.53;1692948;83;24178;-85